Time;durP1;ratioP1;P1;durP2;ratioP2;P2;SDS_P1;SDS_P2;PMS_P1;PMS_P2;Temp;Humidity;BMP_temperature;BMP_pressure;BME280_temperature;BME280_humidity;BME280_pressure;Samples;Min_cycle;Max_cycle;Signal;HPM_P1;HPM_P2
2023/06/21 00:02:19;0.00;0.00;0.62;0.00;0.00;0.62;4.90;4.50;;;34.40;27.30;;;;;;2267870;61;20375;-64
2023/06/21 00:05:05;0.00;0.00;0.62;0.00;0.00;0.62;5.10;4.60;;;34.40;27.30;;;;;;2268296;61;20371;-66
2023/06/21 00:07:53;0.00;0.00;0.62;0.00;0.00;0.62;4.50;4.10;;;34.40;27.30;;;;;;2268002;61;20379;-66
2023/06/21 00:10:37;0.00;0.00;0.62;0.00;0.00;0.62;4.70;4.30;;;34.30;27.20;;;;;;2267549;61;21031;-65
2023/06/21 00:13:22;0.00;0.00;0.62;0.00;0.00;0.62;4.60;4.20;;;34.30;27.20;;;;;;2268020;61;20354;-66
2023/06/21 00:16:07;0.00;0.00;0.62;0.00;0.00;0.62;5.30;4.80;;;34.40;27.30;;;;;;2268164;61;20414;-66
2023/06/21 00:18:53;0.00;0.00;0.62;0.00;0.00;0.62;4.80;4.40;;;34.40;27.30;;;;;;2267501;61;20399;-66
2023/06/21 00:21:38;0.00;0.00;0.62;0.00;0.00;0.62;4.93;4.57;;;34.30;27.20;;;;;;2268064;61;20452;-65
2023/06/21 00:24:23;0.00;0.00;0.62;0.00;0.00;0.62;5.60;5.07;;;34.40;27.30;;;;;;2267830;61;20375;-66
2023/06/21 00:27:08;0.00;0.00;0.62;0.00;0.00;0.62;4.10;3.70;;;34.30;27.20;;;;;;2267736;61;20358;-65
2023/06/21 00:29:53;0.00;0.00;0.62;0.00;0.00;0.62;4.70;4.30;;;34.30;27.20;;;;;;2264331;61;20440;-65
2023/06/21 00:32:41;0.00;0.00;0.62;0.00;0.00;0.62;4.73;4.03;;;34.30;27.20;;;;;;2264648;61;20363;-64
2023/06/21 00:35:27;0.00;0.00;0.62;0.00;0.00;0.62;3.90;3.60;;;34.30;27.20;;;;;;2264320;61;20393;-64
2023/06/21 00:38:13;0.00;0.00;0.62;0.00;0.00;0.62;4.00;3.70;;;34.40;27.30;;;;;;2264807;61;20355;-64
2023/06/21 00:40:58;0.00;0.00;0.62;0.00;0.00;0.62;4.63;4.23;;;34.30;27.70;;;;;;2267936;61;20386;-65
2023/06/21 00:43:43;0.00;0.00;0.62;0.00;0.00;0.62;5.00;4.57;;;34.30;27.20;;;;;;2264632;61;20923;-65
2023/06/21 00:46:29;0.00;0.00;0.62;0.00;0.00;0.62;4.67;4.27;;;34.30;27.20;;;;;;2264659;61;20448;-65
2023/06/21 00:49:14;0.00;0.00;0.62;0.00;0.00;0.62;4.20;3.90;;;34.40;27.30;;;;;;2267335;61;20391;-65
2023/06/21 00:52:01;0.00;0.00;0.62;0.00;0.00;0.62;4.20;3.80;;;34.30;27.20;;;;;;2264770;61;20879;-65
2023/06/21 00:54:46;0.00;0.00;0.62;0.00;0.00;0.62;5.20;4.30;;;34.30;27.20;;;;;;2264397;61;20363;-65
2023/06/21 00:57:33;0.00;0.00;0.62;0.00;0.00;0.62;4.60;4.20;;;34.30;27.20;;;;;;2264702;61;20421;-66
2023/06/21 01:00:21;0.00;0.00;0.62;0.00;0.00;0.62;3.87;3.50;;;34.30;27.20;;;;;;2267741;61;20690;-67
2023/06/21 01:03:06;0.00;0.00;0.62;0.00;0.00;0.62;3.67;3.37;;;34.30;27.20;;;;;;2267677;61;20405;-65
2023/06/21 01:06:09;0.00;0.00;0.62;0.00;0.00;0.62;3.53;3.23;;;34.40;27.30;;;;;;2264632;61;20446;-66
2023/06/21 01:09:10;0.00;0.00;0.62;0.00;0.00;0.62;3.93;3.63;;;34.30;27.20;;;;;;2264024;61;20980;-66
2023/06/21 01:12:02;0.00;0.00;0.62;0.00;0.00;0.62;4.40;4.00;;;34.30;27.20;;;;;;2264641;61;20364;-65
2023/06/21 01:14:55;0.00;0.00;0.62;0.00;0.00;0.62;3.93;3.63;;;34.30;27.20;;;;;;2264902;61;20351;-66
2023/06/21 01:17:43;0.00;0.00;0.62;0.00;0.00;0.62;4.00;3.70;;;34.30;27.20;;;;;;2268093;61;20397;-66
2023/06/21 01:20:33;0.00;0.00;0.62;0.00;0.00;0.62;3.87;3.57;;;34.30;27.20;;;;;;2267997;61;20398;-65
2023/06/21 01:23:51;0.00;0.00;0.62;0.00;0.00;0.62;3.87;3.50;;;34.30;27.20;;;;;;2264951;61;20355;-66
2023/06/21 01:27:15;0.00;0.00;0.62;0.00;0.00;0.62;4.60;3.87;;;34.30;27.20;;;;;;2268671;61;20386;-65
2023/06/21 01:30:03;0.00;0.00;0.62;0.00;0.00;0.62;4.00;3.70;;;34.30;27.20;;;;;;2268335;61;20402;-66
2023/06/21 01:32:53;0.00;0.00;0.62;0.00;0.00;0.62;4.43;4.03;;;34.30;27.20;;;;;;2265152;61;20761;-66
2023/06/21 01:35:38;0.00;0.00;0.62;0.00;0.00;0.62;3.87;3.57;;;34.30;27.20;;;;;;2265347;61;20911;-65
2023/06/21 01:38:24;0.00;0.00;0.62;0.00;0.00;0.62;3.77;3.47;;;34.30;27.20;;;;;;2264620;61;20420;-64
2023/06/21 01:41:10;0.00;0.00;0.62;0.00;0.00;0.62;4.20;3.80;;;34.30;27.70;;;;;;2265358;61;20923;-65
2023/06/21 01:43:56;0.00;0.00;0.62;0.00;0.00;0.62;3.70;3.40;;;34.30;27.20;;;;;;2268618;61;20377;-64
2023/06/21 01:46:44;0.00;0.00;0.62;0.00;0.00;0.62;3.90;3.50;;;34.30;27.20;;;;;;2265189;61;20424;-69
2023/06/21 01:49:31;0.00;0.00;0.62;0.00;0.00;0.62;3.70;3.40;;;34.30;27.20;;;;;;2267975;61;20388;-68
2023/06/21 01:52:18;0.00;0.00;0.62;0.00;0.00;0.62;4.27;3.93;;;34.30;27.20;;;;;;2268599;61;20466;-65
2023/06/21 01:55:05;0.00;0.00;0.62;0.00;0.00;0.62;4.10;3.80;;;34.30;27.20;;;;;;2268284;61;20354;-65
2023/06/21 01:57:51;0.00;0.00;0.62;0.00;0.00;0.62;3.60;3.30;;;34.30;27.20;;;;;;2268545;61;20443;-65
2023/06/21 02:00:36;0.00;0.00;0.62;0.00;0.00;0.62;3.87;3.57;;;34.30;27.20;;;;;;2264692;61;20475;-65
2023/06/21 02:03:22;0.00;0.00;0.62;0.00;0.00;0.62;4.50;4.10;;;34.30;27.20;;;;;;2265234;61;20359;-66
2023/06/21 02:06:08;0.00;0.00;0.62;0.00;0.00;0.62;4.17;3.87;;;34.30;27.20;;;;;;2265361;61;20743;-66
2023/06/21 02:08:53;0.00;0.00;0.62;0.00;0.00;0.62;3.87;3.53;;;34.30;27.20;;;;;;2268722;55;20426;-66
2023/06/21 02:11:38;0.00;0.00;0.62;0.00;0.00;0.62;3.47;3.17;;;34.30;27.20;;;;;;2266764;61;20367;-66
2023/06/21 02:14:23;0.00;0.00;0.62;0.00;0.00;0.62;4.07;3.67;;;34.30;27.20;;;;;;2268530;61;20387;-65
2023/06/21 02:17:08;0.00;0.00;0.62;0.00;0.00;0.62;3.97;3.60;;;34.30;27.20;;;;;;2264888;61;20362;-65
2023/06/21 02:19:55;0.00;0.00;0.62;0.00;0.00;0.62;4.17;3.87;;;34.20;27.20;;;;;;2264723;61;20383;-66
2023/06/21 02:22:40;0.00;0.00;0.62;0.00;0.00;0.62;4.10;3.80;;;34.20;27.20;;;;;;2265102;61;20367;-66
2023/06/21 02:25:26;0.00;0.00;0.62;0.00;0.00;0.62;3.87;3.47;;;34.20;27.20;;;;;;2268406;61;20359;-66
2023/06/21 02:28:10;0.00;0.00;0.62;0.00;0.00;0.62;3.83;3.53;;;34.20;27.20;;;;;;2268307;61;20378;-66
2023/06/21 02:30:55;0.00;0.00;0.62;0.00;0.00;0.62;4.07;3.67;;;34.20;27.20;;;;;;2264943;61;20429;-66
2023/06/21 02:33:44;0.00;0.00;0.62;0.00;0.00;0.62;4.00;3.70;;;34.20;27.20;;;;;;2268170;61;20363;-66
2023/06/21 02:36:35;0.00;0.00;0.62;0.00;0.00;0.62;3.80;3.50;;;34.20;27.20;;;;;;2265326;61;20351;-65
2023/06/21 02:39:21;0.00;0.00;0.62;0.00;0.00;0.62;4.10;3.80;;;34.20;27.20;;;;;;2267836;61;20464;-65
2023/06/21 02:42:06;0.00;0.00;0.62;0.00;0.00;0.62;3.83;3.43;;;34.20;27.20;;;;;;2268229;61;20976;-66
2023/06/21 02:44:50;0.00;0.00;0.62;0.00;0.00;0.62;3.73;3.43;;;34.20;27.20;;;;;;2268177;61;20752;-66
2023/06/21 02:47:35;0.00;0.00;0.62;0.00;0.00;0.62;3.70;3.40;;;34.20;27.20;;;;;;2268543;61;20950;-65
2023/06/21 02:50:20;0.00;0.00;0.62;0.00;0.00;0.62;3.63;3.33;;;34.20;27.20;;;;;;2268213;61;20383;-65
2023/06/21 02:53:06;0.00;0.00;0.62;0.00;0.00;0.62;4.27;3.90;;;34.10;27.10;;;;;;2268125;61;20409;-65
2023/06/21 02:55:50;0.00;0.00;0.62;0.00;0.00;0.62;3.60;3.30;;;34.10;27.10;;;;;;2268039;61;20398;-66
2023/06/21 02:58:35;0.00;0.00;0.62;0.00;0.00;0.62;4.00;3.70;;;34.10;27.10;;;;;;2265150;61;20410;-66
2023/06/21 03:01:22;0.00;0.00;0.62;0.00;0.00;0.62;3.90;3.60;;;34.10;27.10;;;;;;2268213;61;20490;-67
2023/06/21 03:04:07;0.00;0.00;0.62;0.00;0.00;0.62;3.83;3.53;;;34.10;27.10;;;;;;2265112;61;20363;-66
2023/06/21 03:06:52;0.00;0.00;0.62;0.00;0.00;0.62;3.63;3.20;;;34.10;27.10;;;;;;2268397;61;20410;-69
2023/06/21 03:09:37;0.00;0.00;0.62;0.00;0.00;0.62;4.20;3.90;;;34.10;27.10;;;;;;2267750;61;20391;-66
2023/06/21 03:12:22;0.00;0.00;0.62;0.00;0.00;0.62;4.07;3.67;;;34.10;27.10;;;;;;2268407;61;20413;-66
2023/06/21 03:15:10;0.00;0.00;0.62;0.00;0.00;0.62;3.67;3.37;;;34.10;27.10;;;;;;2264852;61;20409;-66
2023/06/21 03:17:56;0.00;0.00;0.62;0.00;0.00;0.62;4.53;4.13;;;34.10;27.10;;;;;;2264801;61;20473;-66
2023/06/21 03:20:42;0.00;0.00;0.62;0.00;0.00;0.62;3.90;3.60;;;34.10;27.10;;;;;;2265144;61;20900;-66
2023/06/21 03:23:27;0.00;0.00;0.62;0.00;0.00;0.62;3.80;3.50;;;34.10;27.10;;;;;;2264715;61;20399;-65
2023/06/21 03:26:13;0.00;0.00;0.62;0.00;0.00;0.62;4.00;3.60;;;34.10;27.10;;;;;;2265045;61;20364;-65
2023/06/21 03:29:00;0.00;0.00;0.62;0.00;0.00;0.62;4.07;3.67;;;34.10;27.70;;;;;;2267768;61;20413;-66
2023/06/21 03:31:45;0.00;0.00;0.62;0.00;0.00;0.62;4.23;3.83;;;34.10;27.10;;;;;;2265191;61;20812;-66
2023/06/21 03:34:30;0.00;0.00;0.62;0.00;0.00;0.62;3.57;3.27;;;34.10;27.10;;;;;;2265253;61;20765;-66
2023/06/21 03:37:14;0.00;0.00;0.62;0.00;0.00;0.62;7.20;4.10;;;34.00;27.00;;;;;;2264906;61;20406;-65
2023/06/21 03:39:59;0.00;0.00;0.62;0.00;0.00;0.62;4.30;3.90;;;34.10;27.10;;;;;;2264428;61;20380;-66
2023/06/21 03:42:46;0.00;0.00;0.62;0.00;0.00;0.62;4.13;3.83;;;34.00;27.00;;;;;;2268226;61;20362;-66
2023/06/21 03:45:31;0.00;0.00;0.62;0.00;0.00;0.62;4.10;3.70;;;34.00;27.00;;;;;;2264708;61;20363;-63
2023/06/21 03:48:18;0.00;0.00;0.62;0.00;0.00;0.62;4.47;4.07;;;34.00;27.00;;;;;;2264744;61;20394;-63
2023/06/21 03:51:04;0.00;0.00;0.62;0.00;0.00;0.62;4.87;4.47;;;34.00;27.00;;;;;;2264848;61;20966;-66
2023/06/21 03:53:50;0.00;0.00;0.62;0.00;0.00;0.62;4.80;4.40;;;34.00;27.10;;;;;;2265060;61;20401;-66
2023/06/21 03:56:35;0.00;0.00;0.62;0.00;0.00;0.62;4.50;4.10;;;34.00;27.00;;;;;;2268192;61;20896;-65
2023/06/21 03:59:21;0.00;0.00;0.62;0.00;0.00;0.62;5.40;4.90;;;34.00;27.00;;;;;;2267593;61;20417;-66
2023/06/21 04:02:08;0.00;0.00;0.62;0.00;0.00;0.62;5.23;4.83;;;34.00;27.00;;;;;;2264960;61;20409;-63
2023/06/21 04:04:52;0.00;0.00;0.62;0.00;0.00;0.62;5.10;4.60;;;34.00;27.00;;;;;;2265150;61;20811;-64
2023/06/21 04:07:38;0.00;0.00;0.62;0.00;0.00;0.62;6.10;5.60;;;34.00;27.00;;;;;;2267789;61;20359;-63
2023/06/21 04:10:23;0.00;0.00;0.62;0.00;0.00;0.62;6.07;5.57;;;34.00;27.00;;;;;;2267750;61;20861;-66
2023/06/21 04:13:07;0.00;0.00;0.62;0.00;0.00;0.62;4.90;4.50;;;34.00;27.00;;;;;;2268312;61;20379;-65
2023/06/21 04:15:54;0.00;0.00;0.62;0.00;0.00;0.62;5.77;5.33;;;33.90;27.50;;;;;;2264956;61;20392;-66
2023/06/21 04:18:42;0.00;0.00;0.62;0.00;0.00;0.62;5.47;5.07;;;34.00;27.00;;;;;;2264386;61;20402;-65
2023/06/21 04:21:26;0.00;0.00;0.62;0.00;0.00;0.62;5.23;4.80;;;34.00;27.00;;;;;;2267944;61;20716;-66
2023/06/21 04:24:11;0.00;0.00;0.62;0.00;0.00;0.62;6.57;6.07;;;33.90;27.00;;;;;;2264963;61;20363;-63
2023/06/21 04:26:58;0.00;0.00;0.62;0.00;0.00;0.62;6.13;5.63;;;33.90;27.00;;;;;;2264999;61;20928;-66
2023/06/21 04:29:43;0.00;0.00;0.62;0.00;0.00;0.62;5.57;5.07;;;33.90;27.00;;;;;;2264184;61;20391;-66
2023/06/21 04:32:32;0.00;0.00;0.62;0.00;0.00;0.62;6.00;5.50;;;33.90;27.00;;;;;;2267961;61;20363;-66
2023/06/21 04:35:18;0.00;0.00;0.62;0.00;0.00;0.62;5.83;5.33;;;34.00;27.00;;;;;;2268112;61;20367;-65
2023/06/21 04:38:02;0.00;0.00;0.62;0.00;0.00;0.62;6.73;6.13;;;34.00;27.00;;;;;;2267865;61;20429;-66
2023/06/21 04:40:47;0.00;0.00;0.62;0.00;0.00;0.62;5.97;5.47;;;33.90;27.00;;;;;;2267892;61;20766;-66
2023/06/21 04:43:32;0.00;0.00;0.62;0.00;0.00;0.62;7.47;6.83;;;33.90;27.50;;;;;;2267887;61;20391;-65
2023/06/21 04:46:18;0.00;0.00;0.62;0.00;0.00;0.62;6.53;5.93;;;33.90;27.00;;;;;;2267989;61;20395;-65
2023/06/21 04:49:05;0.00;0.00;0.62;0.00;0.00;0.62;7.10;6.50;;;33.90;27.00;;;;;;2267397;61;20479;-65
2023/06/21 04:51:50;0.00;0.00;0.62;0.00;0.00;0.62;7.37;6.77;;;33.90;27.00;;;;;;2267376;61;20382;-66
2023/06/21 04:54:34;0.00;0.00;0.62;0.00;0.00;0.62;7.63;7.00;;;33.90;27.00;;;;;;2267793;61;20777;-66
2023/06/21 04:57:19;0.00;0.00;0.62;0.00;0.00;0.62;7.60;6.90;;;33.90;27.00;;;;;;2264979;61;20382;-65
2023/06/21 05:00:07;0.00;0.00;0.62;0.00;0.00;0.62;9.50;7.47;;;33.90;27.00;;;;;;2267412;61;20410;-65
2023/06/21 05:02:52;0.00;0.00;0.62;0.00;0.00;0.62;9.00;8.30;;;33.90;27.00;;;;;;2267808;61;20395;-66
2023/06/21 05:05:38;0.00;0.00;0.62;0.00;0.00;0.62;9.27;8.53;;;33.90;27.00;;;;;;2267695;61;20387;-69
2023/06/21 05:08:22;0.00;0.00;0.62;0.00;0.00;0.62;8.43;7.73;;;33.90;27.00;;;;;;2267314;61;20402;-66
2023/06/21 05:11:08;0.00;0.00;0.62;0.00;0.00;0.62;8.53;7.73;;;33.90;27.00;;;;;;2267974;61;20479;-65
2023/06/21 05:13:52;0.00;0.00;0.62;0.00;0.00;0.62;8.07;7.37;;;33.90;27.00;;;;;;2267592;61;20358;-65
2023/06/21 05:16:40;0.00;0.00;0.62;0.00;0.00;0.62;8.13;7.43;;;33.90;27.00;;;;;;2267765;61;20802;-65
2023/06/21 05:19:25;0.00;0.00;0.62;0.00;0.00;0.62;8.73;8.00;;;33.90;27.00;;;;;;2267718;61;20901;-66
2023/06/21 05:22:11;0.00;0.00;0.62;0.00;0.00;0.62;8.47;7.70;;;33.90;27.00;;;;;;2267648;61;20410;-65
2023/06/21 05:24:55;0.00;0.00;0.62;0.00;0.00;0.62;7.73;7.03;;;33.90;27.00;;;;;;2267747;61;20394;-66
2023/06/21 05:27:40;0.00;0.00;0.62;0.00;0.00;0.62;7.60;6.87;;;33.90;27.00;;;;;;2267849;61;20413;-65
2023/06/21 05:30:25;0.00;0.00;0.62;0.00;0.00;0.62;8.20;7.50;;;33.90;27.00;;;;;;2267472;61;20453;-65
2023/06/21 05:33:09;0.00;0.00;0.62;0.00;0.00;0.62;7.40;6.80;;;33.90;27.00;;;;;;2268213;61;20430;-65
2023/06/21 05:35:54;0.00;0.00;0.62;0.00;0.00;0.62;9.37;8.57;;;33.90;27.00;;;;;;2267690;61;20409;-66
2023/06/21 05:38:40;0.00;0.00;0.62;0.00;0.00;0.62;7.57;6.87;;;33.90;27.00;;;;;;2267372;61;20355;-65
2023/06/21 05:41:25;0.00;0.00;0.62;0.00;0.00;0.62;7.30;6.70;;;33.90;27.00;;;;;;2267979;61;20789;-65
2023/06/21 05:44:10;0.00;0.00;0.62;0.00;0.00;0.62;7.40;6.80;;;33.90;27.10;;;;;;2267517;61;20961;-65
2023/06/21 05:46:55;0.00;0.00;0.62;0.00;0.00;0.62;6.60;6.00;;;33.90;27.10;;;;;;2267768;61;20460;-66
2023/06/21 05:49:39;0.00;0.00;0.62;0.00;0.00;0.62;7.40;6.80;;;33.90;27.10;;;;;;2267085;61;20394;-66
2023/06/21 05:52:24;0.00;0.00;0.62;0.00;0.00;0.62;7.60;6.90;;;33.90;27.10;;;;;;2267780;61;20840;-65
2023/06/21 05:55:10;0.00;0.00;0.62;0.00;0.00;0.62;7.40;6.80;;;33.90;27.10;;;;;;2267840;61;20363;-65
2023/06/21 05:57:55;0.00;0.00;0.62;0.00;0.00;0.62;6.97;6.37;;;33.90;27.10;;;;;;2267406;61;20360;-66
2023/06/21 06:00:39;0.00;0.00;0.62;0.00;0.00;0.62;6.53;5.93;;;33.90;27.20;;;;;;2267763;61;20464;-63
2023/06/21 06:03:24;0.00;0.00;0.62;0.00;0.00;0.62;6.27;5.77;;;33.90;27.70;;;;;;2268297;61;20441;-63
2023/06/21 06:06:09;0.00;0.00;0.62;0.00;0.00;0.62;6.73;6.13;;;33.90;27.70;;;;;;2268428;61;20402;-63
2023/06/21 06:08:54;0.00;0.00;0.62;0.00;0.00;0.62;5.53;5.03;;;33.90;27.20;;;;;;2267998;61;20370;-63
2023/06/21 06:11:39;0.00;0.00;0.62;0.00;0.00;0.62;7.10;6.40;;;33.90;27.20;;;;;;2268592;61;20359;-62
2023/06/21 06:14:24;0.00;0.00;0.62;0.00;0.00;0.62;5.87;5.33;;;33.90;27.20;;;;;;2269024;61;20383;-63
2023/06/21 06:17:09;0.00;0.00;0.62;0.00;0.00;0.62;6.00;5.50;;;33.90;27.20;;;;;;2268478;61;20387;-63
2023/06/21 06:19:54;0.00;0.00;0.62;0.00;0.00;0.62;5.40;5.00;;;33.90;27.20;;;;;;2267888;61;20367;-70
2023/06/21 06:22:42;0.00;0.00;0.62;0.00;0.00;0.62;5.67;5.17;;;33.90;27.20;;;;;;2268356;61;20399;-65
2023/06/21 06:25:26;0.00;0.00;0.62;0.00;0.00;0.62;5.67;5.17;;;33.90;27.20;;;;;;2268468;61;20402;-66
2023/06/21 06:28:12;0.00;0.00;0.62;0.00;0.00;0.62;5.50;4.97;;;33.90;27.20;;;;;;2268295;61;20441;-66
2023/06/21 06:30:57;0.00;0.00;0.62;0.00;0.00;0.62;6.00;5.50;;;33.90;27.20;;;;;;2268263;61;20454;-66
2023/06/21 06:33:42;0.00;0.00;0.62;0.00;0.00;0.62;5.10;4.60;;;33.90;27.20;;;;;;2268450;61;20391;-65
2023/06/21 06:36:26;0.00;0.00;0.62;0.00;0.00;0.62;5.53;5.03;;;33.90;27.20;;;;;;2268297;61;20359;-65
2023/06/21 06:39:12;0.00;0.00;0.62;0.00;0.00;0.62;4.60;4.20;;;33.90;27.20;;;;;;2264537;61;20426;-65
2023/06/21 06:41:57;0.00;0.00;0.62;0.00;0.00;0.62;4.70;4.30;;;33.90;27.20;;;;;;2268088;61;20407;-65
2023/06/21 06:44:43;0.00;0.00;0.62;0.00;0.00;0.62;5.40;4.73;;;33.90;27.20;;;;;;2268462;61;20379;-66
2023/06/21 06:47:29;0.00;0.00;0.62;0.00;0.00;0.62;4.80;4.40;;;33.90;27.20;;;;;;2268520;61;20360;-65
2023/06/21 06:50:14;0.00;0.00;0.62;0.00;0.00;0.62;5.37;4.87;;;33.90;27.20;;;;;;2267579;61;20406;-66
2023/06/21 06:53:00;0.00;0.00;0.62;0.00;0.00;0.62;4.90;4.50;;;33.90;27.20;;;;;;2268134;61;20487;-65
2023/06/21 06:55:45;0.00;0.00;0.62;0.00;0.00;0.62;4.40;4.00;;;33.90;27.20;;;;;;2268491;61;20443;-65
2023/06/21 06:58:30;0.00;0.00;0.62;0.00;0.00;0.62;5.27;4.77;;;33.90;27.30;;;;;;2267569;61;20355;-66
2023/06/21 07:01:16;0.00;0.00;0.62;0.00;0.00;0.62;4.73;4.23;;;33.90;27.20;;;;;;2268360;61;20362;-65
2023/06/21 07:04:01;0.00;0.00;0.62;0.00;0.00;0.62;4.30;3.90;;;33.90;27.20;;;;;;2268080;61;20898;-65
2023/06/21 07:06:46;0.00;0.00;0.62;0.00;0.00;0.62;4.73;4.30;;;33.90;27.20;;;;;;2268201;61;20363;-65
2023/06/21 07:09:33;0.00;0.00;0.62;0.00;0.00;0.62;4.57;4.17;;;33.90;27.20;;;;;;2267837;61;20421;-65
2023/06/21 07:12:17;0.00;0.00;0.62;0.00;0.00;0.62;4.13;3.80;;;33.90;27.20;;;;;;2268105;61;20431;-65
2023/06/21 07:15:02;0.00;0.00;0.62;0.00;0.00;0.62;4.47;4.07;;;33.90;27.20;;;;;;2264541;61;20406;-65
2023/06/21 07:17:49;0.00;0.00;0.62;0.00;0.00;0.62;4.70;4.30;;;33.90;27.20;;;;;;2268658;61;20837;-65
2023/06/21 07:20:34;0.00;0.00;0.62;0.00;0.00;0.62;4.20;3.80;;;33.90;27.30;;;;;;2267442;61;20952;-65
2023/06/21 07:23:19;0.00;0.00;0.62;0.00;0.00;0.62;4.37;3.97;;;33.90;27.20;;;;;;2268160;61;20366;-65
2023/06/21 07:26:03;0.00;0.00;0.62;0.00;0.00;0.62;4.23;3.83;;;33.90;27.20;;;;;;2267892;61;20364;-65
2023/06/21 07:28:48;0.00;0.00;0.62;0.00;0.00;0.62;3.97;3.67;;;33.90;27.30;;;;;;2267779;61;20976;-65
2023/06/21 07:31:33;0.00;0.00;0.62;0.00;0.00;0.62;4.10;3.70;;;33.90;27.20;;;;;;2268423;61;20363;-65
2023/06/21 07:34:19;0.00;0.00;0.62;0.00;0.00;0.62;3.87;3.57;;;33.90;27.20;;;;;;2267761;61;20443;-65
2023/06/21 07:37:04;0.00;0.00;0.62;0.00;0.00;0.62;3.90;3.60;;;33.90;27.20;;;;;;2268069;61;20399;-65
2023/06/21 07:39:48;0.00;0.00;0.62;0.00;0.00;0.62;4.40;4.00;;;33.90;27.30;;;;;;2267740;61;20917;-65
2023/06/21 07:42:33;0.00;0.00;0.62;0.00;0.00;0.62;3.53;3.23;;;33.90;27.20;;;;;;2268140;61;20355;-65
2023/06/21 07:45:18;0.00;0.00;0.62;0.00;0.00;0.62;3.70;3.40;;;33.90;27.20;;;;;;2268290;61;20366;-65
2023/06/21 07:48:03;0.00;0.00;0.62;0.00;0.00;0.62;3.63;3.30;;;33.90;27.30;;;;;;2267958;61;20425;-65
2023/06/21 07:50:49;0.00;0.00;0.62;0.00;0.00;0.62;4.03;3.73;;;33.90;27.20;;;;;;2268011;61;20399;-65
2023/06/21 07:53:33;0.00;0.00;0.62;0.00;0.00;0.62;4.17;3.40;;;33.90;27.30;;;;;;2268281;61;20391;-63
2023/06/21 07:56:18;0.00;0.00;0.62;0.00;0.00;0.62;3.83;3.50;;;33.90;27.30;;;;;;2267890;61;20896;-65
2023/06/21 07:59:02;0.00;0.00;0.62;0.00;0.00;0.62;3.77;3.47;;;33.90;27.30;;;;;;2267633;61;20354;-65
2023/06/21 08:01:47;0.00;0.00;0.62;0.00;0.00;0.62;4.10;3.80;;;33.90;27.30;;;;;;2268141;61;20417;-65
2023/06/21 08:04:31;0.00;0.00;0.62;0.00;0.00;0.62;3.73;3.43;;;33.90;27.30;;;;;;2268145;61;20368;-65
2023/06/21 08:07:17;0.00;0.00;0.62;0.00;0.00;0.62;4.40;4.00;;;33.90;27.20;;;;;;2267964;61;20367;-64
2023/06/21 08:10:03;0.00;0.00;0.62;0.00;0.00;0.62;3.50;3.20;;;33.90;27.20;;;;;;2267603;61;20391;-65
2023/06/21 08:12:48;0.00;0.00;0.62;0.00;0.00;0.62;4.00;3.70;;;33.90;27.30;;;;;;2268212;61;20410;-64
2023/06/21 08:15:33;0.00;0.00;0.62;0.00;0.00;0.62;3.70;3.40;;;33.90;27.20;;;;;;2268168;61;20489;-65
2023/06/21 08:18:18;0.00;0.00;0.62;0.00;0.00;0.62;3.67;3.37;;;33.90;27.80;;;;;;2267590;61;20435;-65
2023/06/21 08:21:05;0.00;0.00;0.62;0.00;0.00;0.62;4.17;3.47;;;33.90;27.20;;;;;;2268027;61;20414;-64
2023/06/21 08:23:52;0.00;0.00;0.62;0.00;0.00;0.62;3.60;3.30;;;33.90;27.20;;;;;;2268046;61;20394;-64
2023/06/21 08:26:36;0.00;0.00;0.62;0.00;0.00;0.62;3.57;3.27;;;33.90;27.20;;;;;;2267777;61;20452;-65
2023/06/21 08:29:21;0.00;0.00;0.62;0.00;0.00;0.62;3.80;3.50;;;33.90;27.20;;;;;;2267590;61;20436;-65
2023/06/21 08:32:07;0.00;0.00;0.62;0.00;0.00;0.62;3.77;3.47;;;33.90;27.20;;;;;;2268104;61;20359;-65
2023/06/21 08:34:54;0.00;0.00;0.62;0.00;0.00;0.62;3.73;3.43;;;33.90;27.20;;;;;;2264506;61;20810;-64
2023/06/21 08:37:40;0.00;0.00;0.62;0.00;0.00;0.62;3.57;3.27;;;33.90;27.20;;;;;;2267829;61;20374;-65
2023/06/21 08:40:30;0.00;0.00;0.62;0.00;0.00;0.62;3.83;3.43;;;33.90;27.20;;;;;;2267374;61;20375;-66
2023/06/21 08:43:15;0.00;0.00;0.62;0.00;0.00;0.62;3.40;3.10;;;33.90;27.20;;;;;;2267697;61;20417;-64
2023/06/21 08:46:03;0.00;0.00;0.62;0.00;0.00;0.62;3.90;3.30;;;33.90;27.20;;;;;;2268116;61;20367;-64
2023/06/21 08:48:52;0.00;0.00;0.62;0.00;0.00;0.62;4.10;3.40;;;33.90;27.20;;;;;;2267191;61;20887;-64
2023/06/21 08:51:37;0.00;0.00;0.62;0.00;0.00;0.62;3.33;3.03;;;33.90;27.20;;;;;;2267882;61;20823;-65
2023/06/21 08:54:28;0.00;0.00;0.62;0.00;0.00;0.62;3.73;3.43;;;33.90;27.20;;;;;;2268127;61;20839;-64
2023/06/21 08:57:22;0.00;0.00;0.62;0.00;0.00;0.62;3.40;3.10;;;33.90;27.20;;;;;;2268100;61;20363;-65
2023/06/21 09:00:12;0.00;0.00;0.62;0.00;0.00;0.62;2.90;2.60;;;33.90;27.20;;;;;;2264495;61;20513;-65
2023/06/21 09:03:06;0.00;0.00;0.62;0.00;0.00;0.62;3.60;3.30;;;33.90;27.30;;;;;;2267815;61;20358;-65
2023/06/21 09:05:55;0.00;0.00;0.62;0.00;0.00;0.62;3.20;2.90;;;33.90;27.20;;;;;;2267833;61;20440;-64
2023/06/21 09:08:41;0.00;0.00;0.62;0.00;0.00;0.62;3.50;3.20;;;33.90;27.30;;;;;;2267638;61;20414;-65
2023/06/21 09:11:27;0.00;0.00;0.62;0.00;0.00;0.62;4.33;3.93;;;33.90;27.30;;;;;;2267643;61;20494;-65
2023/06/21 09:14:14;0.00;0.00;0.62;0.00;0.00;0.62;3.17;2.97;;;33.90;27.30;;;;;;2267889;61;20363;-64
2023/06/21 09:17:00;0.00;0.00;0.62;0.00;0.00;0.62;3.63;3.33;;;33.90;27.30;;;;;;2267624;61;20363;-65
2023/06/21 09:19:45;0.00;0.00;0.62;0.00;0.00;0.62;3.30;3.00;;;33.90;27.30;;;;;;2267695;61;20943;-65
2023/06/21 09:22:32;0.00;0.00;0.62;0.00;0.00;0.62;3.60;3.20;;;33.90;27.30;;;;;;2267793;61;20441;-65
2023/06/21 09:25:17;0.00;0.00;0.62;0.00;0.00;0.62;3.40;3.10;;;33.90;27.30;;;;;;2267746;61;20943;-64
2023/06/21 09:28:02;0.00;0.00;0.62;0.00;0.00;0.62;3.70;3.40;;;34.00;27.30;;;;;;2264764;61;20923;-64
2023/06/21 09:30:48;0.00;0.00;0.62;0.00;0.00;0.62;3.63;3.33;;;33.90;27.30;;;;;;2267681;61;20419;-65
2023/06/21 09:33:36;0.00;0.00;0.62;0.00;0.00;0.62;4.00;3.67;;;33.90;27.30;;;;;;2267365;61;20416;-64
2023/06/21 09:36:21;0.00;0.00;0.62;0.00;0.00;0.62;3.70;3.40;;;34.00;27.30;;;;;;2267915;61;20398;-64
2023/06/21 09:39:10;0.00;0.00;0.62;0.00;0.00;0.62;3.63;3.33;;;34.00;27.30;;;;;;2267442;61;20359;-65
2023/06/21 09:41:55;0.00;0.00;0.62;0.00;0.00;0.62;4.10;3.80;;;34.00;27.30;;;;;;2268768;61;20363;-65
2023/06/21 09:44:41;0.00;0.00;0.62;0.00;0.00;0.62;4.10;3.70;;;34.00;27.80;;;;;;2268674;61;20355;-65
2023/06/21 09:47:30;0.00;0.00;0.62;0.00;0.00;0.62;3.60;3.30;;;34.00;27.30;;;;;;2268188;61;20451;-64
2023/06/21 09:50:15;0.00;0.00;0.62;0.00;0.00;0.62;3.60;3.30;;;34.00;27.30;;;;;;2267949;61;20958;-65
2023/06/21 09:53:00;0.00;0.00;0.62;0.00;0.00;0.62;4.13;3.77;;;34.00;27.30;;;;;;2268480;61;20359;-65
2023/06/21 09:55:44;0.00;0.00;0.62;0.00;0.00;0.62;3.80;3.50;;;34.00;27.30;;;;;;2268023;61;20433;-65
2023/06/21 09:58:36;0.00;0.00;0.62;0.00;0.00;0.62;3.70;3.40;;;34.00;27.30;;;;;;2268099;61;20852;-64
2023/06/21 10:01:21;0.00;0.00;0.62;0.00;0.00;0.62;4.20;3.80;;;34.00;27.30;;;;;;2268153;61;20362;-65
2023/06/21 10:04:13;0.00;0.00;0.62;0.00;0.00;0.62;3.73;3.43;;;34.00;27.30;;;;;;2268613;61;20983;-65
2023/06/21 10:07:02;0.00;0.00;0.62;0.00;0.00;0.62;3.83;3.53;;;34.00;27.30;;;;;;2268775;61;20463;-65
2023/06/21 10:09:48;0.00;0.00;0.62;0.00;0.00;0.62;4.37;4.00;;;34.00;27.30;;;;;;2267712;61;20390;-64
2023/06/21 10:12:34;0.00;0.00;0.62;0.00;0.00;0.62;4.20;3.90;;;34.00;27.30;;;;;;2268470;61;20884;-64
2023/06/21 10:15:19;0.00;0.00;0.62;0.00;0.00;0.62;4.40;4.10;;;34.10;27.30;;;;;;2268592;61;20447;-64
2023/06/21 10:18:09;0.00;0.00;0.62;0.00;0.00;0.62;4.77;4.37;;;34.10;27.30;;;;;;2268114;61;20435;-64
2023/06/21 10:21:00;0.00;0.00;0.62;0.00;0.00;0.62;4.67;4.27;;;34.10;27.40;;;;;;2268085;61;20428;-64
2023/06/21 10:23:48;0.00;0.00;0.62;0.00;0.00;0.62;4.20;3.80;;;34.10;27.30;;;;;;2268157;61;20900;-65
2023/06/21 10:26:33;0.00;0.00;0.62;0.00;0.00;0.62;5.17;4.77;;;34.10;27.30;;;;;;2268433;61;20418;-65
2023/06/21 10:29:18;0.00;0.00;0.62;0.00;0.00;0.62;4.83;4.43;;;34.10;27.30;;;;;;2267856;61;21015;-65
2023/06/21 10:32:06;0.00;0.00;0.62;0.00;0.00;0.62;4.20;3.90;;;34.10;27.30;;;;;;2268241;61;20401;-64
2023/06/21 10:34:56;0.00;0.00;0.62;0.00;0.00;0.62;4.47;4.17;;;34.10;27.30;;;;;;2268091;61;20800;-64
2023/06/21 10:37:56;0.00;0.00;0.62;0.00;0.00;0.62;4.90;4.50;;;34.10;27.30;;;;;;2265310;61;20375;-64
2023/06/21 10:40:41;0.00;0.00;0.62;0.00;0.00;0.62;4.77;4.37;;;34.10;27.30;;;;;;2268175;61;20415;-65
2023/06/21 10:43:27;0.00;0.00;0.62;0.00;0.00;0.62;4.53;4.20;;;34.10;27.30;;;;;;2268699;61;20832;-64
2023/06/21 10:46:13;0.00;0.00;0.62;0.00;0.00;0.62;4.70;4.30;;;34.10;27.30;;;;;;2268205;61;20359;-65
2023/06/21 10:49:01;0.00;0.00;0.62;0.00;0.00;0.62;4.67;4.30;;;34.10;27.30;;;;;;2267739;61;20387;-64
2023/06/21 10:51:48;0.00;0.00;0.62;0.00;0.00;0.62;4.40;4.00;;;34.10;27.40;;;;;;2268721;61;20805;-64
2023/06/21 10:54:34;0.00;0.00;0.62;0.00;0.00;0.62;5.00;4.60;;;34.10;27.80;;;;;;2268276;61;20363;-64
2023/06/21 10:57:20;0.00;0.00;0.62;0.00;0.00;0.62;4.80;4.40;;;34.10;27.30;;;;;;2268438;61;20359;-65